createdAt,value
2018-12-20T00:01:23.833Z,4.30
2018-12-20T00:03:52.017Z,4.30
2018-12-20T00:06:20.340Z,4.30
2018-12-20T00:08:48.702Z,4.30
2018-12-20T00:11:16.942Z,4.40
2018-12-20T00:13:45.187Z,4.40
2018-12-20T00:16:13.405Z,4.40
2018-12-20T00:18:41.956Z,4.40
2018-12-20T00:21:10.057Z,4.40
2018-12-20T00:23:38.758Z,4.30
2018-12-20T00:26:07.073Z,4.30
2018-12-20T00:28:35.426Z,4.20
2018-12-20T00:31:03.818Z,4.30
2018-12-20T00:33:32.073Z,4.20
2018-12-20T00:36:00.320Z,4.20
2018-12-20T00:38:28.761Z,4.30
2018-12-20T00:40:57.093Z,4.30
2018-12-20T00:43:25.436Z,4.30
2018-12-20T00:45:53.929Z,4.40
2018-12-20T00:48:22.147Z,4.50
2018-12-20T00:50:50.328Z,4.50
2018-12-20T00:53:18.584Z,4.60
2018-12-20T00:55:47.263Z,4.60
2018-12-20T00:58:15.844Z,4.60
2018-12-20T01:00:44.058Z,4.70
2018-12-20T01:03:12.234Z,4.70
2018-12-20T01:05:40.432Z,4.70
2018-12-20T01:08:08.706Z,4.70
2018-12-20T01:10:36.960Z,4.80
2018-12-20T01:13:05.250Z,4.80
2018-12-20T01:15:33.759Z,4.70
2018-12-20T01:18:01.872Z,4.80
2018-12-20T01:20:30.362Z,4.80
2018-12-20T01:22:58.616Z,4.80
2018-12-20T01:25:26.765Z,4.80
2018-12-20T01:27:55.039Z,4.80
2018-12-20T01:30:23.396Z,4.70
2018-12-20T01:32:51.591Z,4.70
2018-12-20T01:35:19.750Z,4.70
2018-12-20T01:37:48.363Z,4.70
2018-12-20T01:40:16.555Z,4.80
2018-12-20T01:42:44.830Z,4.70
2018-12-20T01:45:13.274Z,4.70
2018-12-20T01:47:41.617Z,4.60
2018-12-20T01:50:09.733Z,4.60
2018-12-20T01:52:38.138Z,4.60
2018-12-20T01:55:06.312Z,4.70
2018-12-20T01:57:34.484Z,4.70
2018-12-20T02:00:02.920Z,4.70
2018-12-20T02:02:31.102Z,4.70
2018-12-20T02:04:59.312Z,4.70
2018-12-20T02:07:27.769Z,4.70
2018-12-20T02:09:55.998Z,4.70
2018-12-20T02:12:24.225Z,4.70
2018-12-20T02:14:53.035Z,4.80
2018-12-20T02:17:21.289Z,4.90
2018-12-20T02:19:49.512Z,4.80
2018-12-20T02:22:18.574Z,4.70
2018-12-20T02:24:46.753Z,4.70
2018-12-20T02:27:14.906Z,4.60
2018-12-20T02:29:43.219Z,4.70
2018-12-20T02:32:11.521Z,4.70
2018-12-20T02:34:40.327Z,4.70
2018-12-20T02:37:08.845Z,4.70
2018-12-20T02:39:37.124Z,4.70
2018-12-20T02:42:05.578Z,4.70
2018-12-20T02:44:33.861Z,4.70
2018-12-20T02:47:02.243Z,4.70
2018-12-20T02:49:30.747Z,4.70
2018-12-20T02:51:59.316Z,4.70
2018-12-20T02:54:27.903Z,4.60
2018-12-20T02:56:56.318Z,4.60
2018-12-20T02:59:24.595Z,4.50
2018-12-20T03:01:53.257Z,4.50
2018-12-20T03:04:21.824Z,4.50
2018-12-20T03:06:50.826Z,4.60
2018-12-20T03:09:19.196Z,4.60
2018-12-20T03:11:47.456Z,4.70
2018-12-20T03:14:15.793Z,4.60
2018-12-20T03:16:44.121Z,4.60
2018-12-20T03:19:12.257Z,4.70
2018-12-20T03:21:40.699Z,4.70
2018-12-20T03:24:09.201Z,4.70
2018-12-20T03:26:37.524Z,4.70
2018-12-20T03:29:06.110Z,4.70
2018-12-20T03:31:34.569Z,4.60
2018-12-20T03:34:02.786Z,4.60
2018-12-20T03:36:31.155Z,4.60
2018-12-20T03:38:59.284Z,4.70
2018-12-20T03:41:27.467Z,4.50
2018-12-20T03:43:55.751Z,4.50
2018-12-20T03:46:24.151Z,4.40
2018-12-20T03:48:52.685Z,4.40
2018-12-20T03:51:21.444Z,4.40
2018-12-20T03:53:49.789Z,4.30
2018-12-20T03:56:18.203Z,4.30
2018-12-20T03:58:46.610Z,4.30
2018-12-20T04:01:14.882Z,4.30
2018-12-20T04:03:43.125Z,4.20
2018-12-20T04:06:12.337Z,4.30
2018-12-20T04:08:40.655Z,4.30
2018-12-20T04:11:08.830Z,4.30
2018-12-20T04:13:36.986Z,4.40
2018-12-20T04:16:05.523Z,4.50
2018-12-20T04:18:33.768Z,4.50
2018-12-20T04:21:03.160Z,4.50
2018-12-20T04:23:31.335Z,4.50
2018-12-20T04:26:02.652Z,4.50
2018-12-20T04:28:30.948Z,4.50
2018-12-20T04:30:59.350Z,4.50
2018-12-20T04:33:28.617Z,4.40
2018-12-20T04:35:57.011Z,4.40
2018-12-20T04:38:26.273Z,4.30
2018-12-20T04:40:54.893Z,4.40
2018-12-20T04:43:23.079Z,4.30
2018-12-20T04:45:51.579Z,4.30
2018-12-20T04:48:19.840Z,4.30
2018-12-20T04:50:48.251Z,4.40
2018-12-20T04:53:16.531Z,4.40
2018-12-20T04:55:44.697Z,4.50
2018-12-20T04:58:12.992Z,4.60
2018-12-20T05:00:41.536Z,4.60
2018-12-20T05:03:09.693Z,4.70
2018-12-20T05:05:37.874Z,4.60
2018-12-20T05:08:06.075Z,4.50
2018-12-20T05:10:34.270Z,4.60
2018-12-20T05:13:02.468Z,4.60
2018-12-20T05:15:31.216Z,4.70
2018-12-20T05:17:59.902Z,4.70
2018-12-20T05:20:28.323Z,4.80
2018-12-20T05:22:56.559Z,4.70
2018-12-20T05:25:24.640Z,4.70
2018-12-20T05:27:53.045Z,4.80
2018-12-20T05:30:21.268Z,4.70
2018-12-20T05:32:49.778Z,4.70
2018-12-20T05:35:18.109Z,4.60
2018-12-20T05:37:46.753Z,4.60
2018-12-20T05:40:15.222Z,4.50
2018-12-20T05:42:44.015Z,4.60
2018-12-20T05:45:12.647Z,4.60
2018-12-20T05:47:40.949Z,4.60
2018-12-20T05:50:09.394Z,4.70
2018-12-20T05:52:37.723Z,4.60
2018-12-20T05:55:06.221Z,4.60
2018-12-20T05:57:34.402Z,4.60
2018-12-20T06:00:03.104Z,4.60
2018-12-20T06:02:31.265Z,4.60
2018-12-20T06:04:59.483Z,4.60
2018-12-20T06:07:27.816Z,4.60
2018-12-20T06:09:55.945Z,4.60
2018-12-20T06:12:24.069Z,4.60
2018-12-20T06:14:52.461Z,4.60
2018-12-20T06:17:20.529Z,4.50
2018-12-20T06:19:48.923Z,4.50
2018-12-20T06:22:17.202Z,4.50
2018-12-20T06:24:45.378Z,4.60
2018-12-20T06:27:13.473Z,4.70
2018-12-20T06:29:42.753Z,4.60
2018-12-20T06:32:11.029Z,4.60
2018-12-20T06:34:39.100Z,4.50
2018-12-20T06:37:07.332Z,4.60
2018-12-20T06:39:35.518Z,4.60
2018-12-20T06:42:03.759Z,4.50
2018-12-20T06:44:32.080Z,4.50
2018-12-20T06:47:00.327Z,4.50
2018-12-20T06:49:28.410Z,4.60
2018-12-20T06:51:56.610Z,4.60
2018-12-20T06:54:24.714Z,4.60
2018-12-20T06:56:52.907Z,4.60
2018-12-20T06:59:21.594Z,4.60
2018-12-20T07:01:49.751Z,4.60
2018-12-20T07:04:17.829Z,4.60
2018-12-20T07:06:46.352Z,4.60
2018-12-20T07:09:14.534Z,4.50
2018-12-20T07:11:42.657Z,4.50
2018-12-20T07:14:10.768Z,4.50
2018-12-20T07:16:39.065Z,4.50
2018-12-20T07:19:07.311Z,4.50
2018-12-20T07:21:35.538Z,4.60
2018-12-20T07:24:03.876Z,4.60
2018-12-20T07:26:32.226Z,4.60
2018-12-20T07:29:00.407Z,4.50
2018-12-20T07:31:29.186Z,4.50
2018-12-20T07:33:57.469Z,4.50
2018-12-20T07:36:25.882Z,4.60
2018-12-20T07:38:54.024Z,4.60
2018-12-20T07:41:22.158Z,4.50
2018-12-20T07:43:50.298Z,4.60
2018-12-20T07:46:18.641Z,4.60
2018-12-20T07:48:46.749Z,4.60
2018-12-20T07:51:14.897Z,4.60
2018-12-20T07:53:43.261Z,4.60
2018-12-20T07:56:11.596Z,4.70
2018-12-20T07:58:39.708Z,4.70
2018-12-20T08:01:08.013Z,4.70
2018-12-20T08:03:36.150Z,4.60
2018-12-20T08:06:04.417Z,4.60
2018-12-20T08:08:32.510Z,4.70
2018-12-20T08:11:00.653Z,4.80
2018-12-20T08:13:28.793Z,4.90
2018-12-20T08:15:56.922Z,5.00
2018-12-20T08:18:25.066Z,5.10
2018-12-20T08:20:53.281Z,5.20
2018-12-20T08:23:21.426Z,5.30
2018-12-20T08:25:49.553Z,5.40
2018-12-20T08:28:17.737Z,5.50
2018-12-20T08:30:45.878Z,5.50
2018-12-20T08:33:14.350Z,5.50
2018-12-20T08:35:44.012Z,5.60
2018-12-20T08:38:12.571Z,5.60
2018-12-20T08:40:40.757Z,5.70
2018-12-20T08:43:08.908Z,5.60
2018-12-20T08:45:37.082Z,5.70
2018-12-20T08:48:05.248Z,5.60
2018-12-20T08:50:33.549Z,5.50
2018-12-20T08:53:01.681Z,5.60
2018-12-20T08:55:30.080Z,5.60
2018-12-20T08:57:58.187Z,5.70
2018-12-20T09:00:26.301Z,5.70
2018-12-20T09:02:54.586Z,5.70
2018-12-20T09:05:22.733Z,5.70
2018-12-20T09:07:50.821Z,5.70
2018-12-20T09:10:19.329Z,5.80
2018-12-20T09:12:47.491Z,5.80
2018-12-20T09:15:15.768Z,5.80
2018-12-20T09:17:43.934Z,5.70
2018-12-20T09:20:12.099Z,5.60
2018-12-20T09:22:40.247Z,5.50
2018-12-20T09:25:08.678Z,5.50
2018-12-20T09:27:36.918Z,5.50
2018-12-20T09:30:06.027Z,5.50
2018-12-20T09:32:34.145Z,5.40
2018-12-20T09:35:02.446Z,5.40
2018-12-20T09:37:30.673Z,5.50
2018-12-20T09:39:58.760Z,5.60
2018-12-20T09:42:26.852Z,5.70
2018-12-20T09:44:55.236Z,5.70
2018-12-20T09:47:28.833Z,5.60
2018-12-20T09:49:57.486Z,5.60
2018-12-20T09:52:25.617Z,5.70
2018-12-20T09:54:53.758Z,5.80
2018-12-20T09:57:21.998Z,5.70
2018-12-20T09:59:50.077Z,5.70
2018-12-20T10:02:18.531Z,5.60
2018-12-20T10:04:46.805Z,5.70
2018-12-20T10:07:14.935Z,5.60
2018-12-20T10:09:43.065Z,5.60
2018-12-20T10:12:11.231Z,5.80
2018-12-20T10:14:39.381Z,5.90
2018-12-20T10:17:07.537Z,5.90
2018-12-20T10:19:35.987Z,6.00
2018-12-20T10:22:04.153Z,6.10
2018-12-20T10:24:32.332Z,6.20
2018-12-20T10:27:00.981Z,6.30
2018-12-20T10:29:29.899Z,6.40
2018-12-20T10:31:58.188Z,6.50
2018-12-20T10:34:26.323Z,6.50
2018-12-20T10:36:54.626Z,6.50
2018-12-20T10:39:23.010Z,6.60
2018-12-20T10:41:51.308Z,6.70
2018-12-20T10:44:19.350Z,6.50
2018-12-20T10:46:47.757Z,6.40
2018-12-20T10:49:15.881Z,6.40
2018-12-20T10:51:44.586Z,6.40
2018-12-20T10:54:12.947Z,6.40
2018-12-20T10:56:41.139Z,6.50
2018-12-20T10:59:09.343Z,6.40
2018-12-20T11:01:42.957Z,6.40
2018-12-20T11:04:16.501Z,6.40
2018-12-20T11:06:50.827Z,6.50
2018-12-20T11:09:24.289Z,6.40
2018-12-20T11:11:57.814Z,6.40
2018-12-20T11:14:25.902Z,6.30
2018-12-20T11:16:54.086Z,6.30
2018-12-20T11:19:22.234Z,6.40
2018-12-20T11:21:50.361Z,6.50
2018-12-20T11:24:18.506Z,6.40
2018-12-20T11:26:46.696Z,6.50
2018-12-20T11:29:14.939Z,6.60
2018-12-20T11:31:43.133Z,6.60
2018-12-20T11:34:11.505Z,6.50
2018-12-20T11:36:39.681Z,6.50
2018-12-20T11:39:08.768Z,6.40
2018-12-20T11:41:37.021Z,6.60
2018-12-20T11:44:05.176Z,6.60
2018-12-20T11:46:33.378Z,6.70
2018-12-20T11:49:01.757Z,6.70
2018-12-20T11:51:29.954Z,6.70
2018-12-20T11:53:58.198Z,6.70
2018-12-20T11:56:26.537Z,6.50
2018-12-20T11:58:54.757Z,6.50
2018-12-20T12:01:22.906Z,6.60
2018-12-20T12:03:57.330Z,6.70
2018-12-20T12:06:22.801Z,6.80
2018-12-20T12:08:50.906Z,6.80
2018-12-20T12:11:19.054Z,6.90
2018-12-20T12:13:47.203Z,6.70
2018-12-20T12:16:15.375Z,6.70
2018-12-20T12:18:43.529Z,6.70
2018-12-20T12:21:11.694Z,6.70
2018-12-20T12:23:40.084Z,6.70
2018-12-20T12:26:08.356Z,6.70
2018-12-20T12:28:36.517Z,6.70
2018-12-20T12:31:05.110Z,6.60
2018-12-20T12:33:33.962Z,6.80
2018-12-20T12:36:02.084Z,6.80
2018-12-20T12:38:30.330Z,6.90
2018-12-20T12:40:58.937Z,7.00
2018-12-20T12:43:26.967Z,7.10
2018-12-20T12:45:55.173Z,7.20
2018-12-20T12:48:23.306Z,7.10
2018-12-20T12:50:51.526Z,7.10
2018-12-20T12:53:20.639Z,7.00
2018-12-20T12:55:49.081Z,7.00
2018-12-20T12:58:17.258Z,7.00
2018-12-20T13:00:45.445Z,7.00
2018-12-20T13:03:13.593Z,7.10
2018-12-20T13:05:41.799Z,7.20
2018-12-20T13:08:10.181Z,7.30
2018-12-20T13:10:38.341Z,7.50
2018-12-20T13:13:06.503Z,7.50
2018-12-20T13:15:34.918Z,7.50
2018-12-20T13:18:06.106Z,7.20
2018-12-20T13:20:33.333Z,7.10
2018-12-20T13:23:01.489Z,7.00
2018-12-20T13:25:29.604Z,6.90
2018-12-20T13:27:58.110Z,6.70
2018-12-20T13:30:26.267Z,6.70
2018-12-20T13:32:54.386Z,6.60
2018-12-20T13:35:23.034Z,6.70
2018-12-20T13:37:51.463Z,6.60
2018-12-20T13:40:19.590Z,6.60
2018-12-20T13:42:48.158Z,6.50
2018-12-20T13:45:16.326Z,6.40
2018-12-20T13:47:44.481Z,6.30
2018-12-20T13:50:12.754Z,6.40
2018-12-20T13:52:40.920Z,6.40
2018-12-20T13:55:09.295Z,6.40
2018-12-20T13:57:37.555Z,6.40
2018-12-20T14:00:07.710Z,6.30
2018-12-20T14:02:35.970Z,6.30
2018-12-20T14:05:04.455Z,6.30
2018-12-20T14:07:32.569Z,6.30
2018-12-20T14:10:00.746Z,6.30
2018-12-20T14:12:28.862Z,6.30
2018-12-20T14:14:57.002Z,6.30
2018-12-20T14:17:25.486Z,6.30
2018-12-20T14:19:53.687Z,6.30
2018-12-20T14:22:21.846Z,6.30
2018-12-20T14:24:50.043Z,6.40
2018-12-20T14:27:18.186Z,6.40
2018-12-20T14:29:46.303Z,6.40
2018-12-20T14:32:14.765Z,6.40
2018-12-20T14:34:43.250Z,6.40
2018-12-20T14:37:11.733Z,6.40
2018-12-20T14:39:40.161Z,6.50
2018-12-20T14:42:08.305Z,6.40
2018-12-20T14:44:36.772Z,6.40
2018-12-20T14:47:05.213Z,6.20
2018-12-20T14:49:33.372Z,6.20
2018-12-20T14:52:01.561Z,6.10
2018-12-20T14:54:29.704Z,6.10
2018-12-20T14:56:58.025Z,6.10
2018-12-20T14:59:26.372Z,6.10
2018-12-20T15:01:54.476Z,6.10
2018-12-20T15:04:22.629Z,6.10
2018-12-20T15:06:50.762Z,6.10
2018-12-20T15:09:19.070Z,6.10
2018-12-20T15:11:47.248Z,6.10
2018-12-20T15:14:16.318Z,6.00
2018-12-20T15:16:44.517Z,5.90
2018-12-20T15:19:12.733Z,5.80
2018-12-20T15:21:41.031Z,5.70
2018-12-20T15:24:09.492Z,5.60
2018-12-20T15:26:37.713Z,5.60
2018-12-20T15:29:05.867Z,5.50
2018-12-20T15:31:34.175Z,5.40
2018-12-20T15:34:02.287Z,5.30
2018-12-20T15:36:31.194Z,5.30
2018-12-20T15:38:59.886Z,5.30
2018-12-20T15:41:27.977Z,5.20
2018-12-20T15:43:56.136Z,5.10
2018-12-20T15:46:24.430Z,5.10
2018-12-20T15:48:57.119Z,5.10
2018-12-20T15:51:25.302Z,5.20
2018-12-20T15:53:53.486Z,5.20
2018-12-20T15:56:21.564Z,5.30
2018-12-20T15:58:49.820Z,5.30
2018-12-20T16:01:17.982Z,5.30
2018-12-20T16:03:46.153Z,5.20
2018-12-20T16:06:14.588Z,5.20
2018-12-20T16:08:42.771Z,5.20
2018-12-20T16:11:11.070Z,5.20
2018-12-20T16:13:39.277Z,5.30
2018-12-20T16:16:07.453Z,5.30
2018-12-20T16:18:36.285Z,5.30
2018-12-20T16:21:04.637Z,5.30
2018-12-20T16:23:32.772Z,5.40
2018-12-20T16:26:00.929Z,5.40
2018-12-20T16:28:29.116Z,5.30
2018-12-20T16:30:57.456Z,5.30
2018-12-20T16:33:25.601Z,5.30
2018-12-20T16:35:53.960Z,5.30
2018-12-20T16:38:22.137Z,5.20
2018-12-20T16:40:50.245Z,5.30
2018-12-20T16:43:18.374Z,5.20
2018-12-20T16:45:46.558Z,5.30
2018-12-20T16:48:19.648Z,5.30
2018-12-20T16:50:47.800Z,5.50
2018-12-20T16:53:15.955Z,5.60
2018-12-20T16:55:44.257Z,5.70
2018-12-20T16:58:12.407Z,5.70
2018-12-20T17:00:40.542Z,5.90
2018-12-20T17:03:08.880Z,6.00
2018-12-20T17:05:37.032Z,6.10
2018-12-20T17:08:05.189Z,6.10
2018-12-20T17:10:34.019Z,6.20
2018-12-20T17:13:02.155Z,6.20
2018-12-20T17:15:30.340Z,6.30
2018-12-20T17:17:58.534Z,6.30
2018-12-20T17:20:26.653Z,6.20
2018-12-20T17:22:54.818Z,6.30
2018-12-20T17:25:23.054Z,6.40
2018-12-20T17:27:51.208Z,6.40
2018-12-20T17:30:19.451Z,6.50
2018-12-20T17:32:47.603Z,6.50
2018-12-20T17:35:15.767Z,6.50
2018-12-20T17:37:44.075Z,6.50
2018-12-20T17:40:12.628Z,6.50
2018-12-20T17:42:40.779Z,6.40
2018-12-20T17:45:09.231Z,6.50
2018-12-20T17:47:37.656Z,6.50
2018-12-20T17:50:07.392Z,6.60
2018-12-20T17:52:35.689Z,6.60
2018-12-20T17:55:04.690Z,6.60
2018-12-20T17:57:33.082Z,6.70
2018-12-20T18:00:01.704Z,6.70
2018-12-20T18:02:29.859Z,6.70
2018-12-20T18:05:06.664Z,6.70
2018-12-20T18:07:28.500Z,6.70
2018-12-20T18:09:56.753Z,6.70
2018-12-20T18:12:25.171Z,6.70
2018-12-20T18:14:53.391Z,6.70
2018-12-20T18:17:21.573Z,6.80
2018-12-20T18:19:49.705Z,6.80
2018-12-20T18:22:18.136Z,6.80
2018-12-20T18:24:46.294Z,6.90
2018-12-20T18:27:14.461Z,6.80
2018-12-20T18:29:42.602Z,6.80
2018-12-20T18:32:10.777Z,6.80
2018-12-20T18:34:38.946Z,6.80
2018-12-20T18:37:07.313Z,6.70
2018-12-20T18:39:35.577Z,6.70
2018-12-20T18:42:04.354Z,6.80
2018-12-20T18:44:32.721Z,6.80
2018-12-20T18:47:00.820Z,6.80
2018-12-20T18:49:28.984Z,6.80
2018-12-20T18:51:57.595Z,6.80
2018-12-20T18:54:25.728Z,6.90
2018-12-20T18:56:53.856Z,6.80
2018-12-20T18:59:21.949Z,6.90
2018-12-20T19:01:50.039Z,6.80
2018-12-20T19:04:18.205Z,6.90
2018-12-20T19:06:46.625Z,6.90
2018-12-20T19:09:14.748Z,6.90
2018-12-20T19:11:42.922Z,6.90
2018-12-20T19:14:11.905Z,7.00
2018-12-20T19:16:40.061Z,7.00
2018-12-20T19:19:08.217Z,7.00
2018-12-20T19:21:36.769Z,7.00
2018-12-20T19:24:04.994Z,7.00
2018-12-20T19:26:33.430Z,7.00
2018-12-20T19:29:01.571Z,7.00
2018-12-20T19:31:29.742Z,7.10
2018-12-20T19:33:57.861Z,7.10
2018-12-20T19:36:27.127Z,7.10
2018-12-20T19:38:55.473Z,7.10
2018-12-20T19:41:23.573Z,7.20
2018-12-20T19:43:51.741Z,7.20
2018-12-20T19:46:19.845Z,7.30
2018-12-20T19:48:47.929Z,7.30
2018-12-20T19:51:16.113Z,7.30
2018-12-20T19:53:44.422Z,7.20
2018-12-20T19:56:12.574Z,7.20
2018-12-20T19:58:40.931Z,7.20
2018-12-20T20:01:09.069Z,7.10
2018-12-20T20:03:37.542Z,7.10
2018-12-20T20:06:05.755Z,7.10
2018-12-20T20:08:33.896Z,7.00
2018-12-20T20:11:02.042Z,7.00
2018-12-20T20:13:30.797Z,6.90
2018-12-20T20:15:59.278Z,6.80
2018-12-20T20:18:27.420Z,6.80
2018-12-20T20:20:55.955Z,6.70
2018-12-20T20:23:24.150Z,6.70
2018-12-20T20:25:52.377Z,6.70
2018-12-20T20:28:21.022Z,6.70
2018-12-20T20:30:49.154Z,6.70
2018-12-20T20:33:17.307Z,6.70
2018-12-20T20:35:45.459Z,6.80
2018-12-20T20:38:13.601Z,6.70
2018-12-20T20:40:41.746Z,6.70
2018-12-20T20:43:09.978Z,6.70
2018-12-20T20:45:38.234Z,6.70
2018-12-20T20:48:06.420Z,6.60
2018-12-20T20:50:35.001Z,6.60
2018-12-20T20:53:03.191Z,6.60
2018-12-20T20:55:31.665Z,6.60
2018-12-20T20:58:00.031Z,6.70
2018-12-20T21:00:28.157Z,6.70
2018-12-20T21:02:56.349Z,6.70
2018-12-20T21:05:24.753Z,6.70
2018-12-20T21:07:52.980Z,6.60
2018-12-20T21:10:21.187Z,6.60
2018-12-20T21:12:49.388Z,6.60
2018-12-20T21:15:17.558Z,6.70
2018-12-20T21:17:45.716Z,6.70
2018-12-20T21:20:14.133Z,6.70
2018-12-20T21:22:42.353Z,6.70
2018-12-20T21:25:10.596Z,6.70
2018-12-20T21:27:39.247Z,6.80
2018-12-20T21:30:09.270Z,6.80
2018-12-20T21:32:37.454Z,6.90
2018-12-20T21:35:06.623Z,6.80
2018-12-20T21:37:34.869Z,6.80
2018-12-20T21:40:03.624Z,6.80
2018-12-20T21:42:31.745Z,6.80
2018-12-20T21:45:00.736Z,6.90
2018-12-20T21:47:29.131Z,6.90
2018-12-20T21:49:57.235Z,6.90
2018-12-20T21:52:25.381Z,6.90
2018-12-20T21:54:53.926Z,6.80
2018-12-20T21:57:22.309Z,6.80
2018-12-20T21:59:50.469Z,6.80
2018-12-20T22:02:18.820Z,6.80
2018-12-20T22:04:46.991Z,6.80
2018-12-20T22:07:15.070Z,6.80
2018-12-20T22:09:43.417Z,6.80
2018-12-20T22:12:11.577Z,6.90
2018-12-20T22:14:39.830Z,6.80
2018-12-20T22:17:08.254Z,6.80
2018-12-20T22:19:36.543Z,6.90
2018-12-20T22:22:04.805Z,6.90
2018-12-20T22:24:33.298Z,6.90
2018-12-20T22:27:01.449Z,6.90
2018-12-20T22:29:29.589Z,6.90
2018-12-20T22:31:57.797Z,6.90
2018-12-20T22:34:25.933Z,7.00
2018-12-20T22:36:54.139Z,7.00
2018-12-20T22:39:22.306Z,6.90
2018-12-20T22:41:50.422Z,6.90
2018-12-20T22:44:18.507Z,7.00
2018-12-20T22:46:47.147Z,7.00
2018-12-20T22:49:16.166Z,7.00
2018-12-20T22:51:44.561Z,7.00
2018-12-20T22:54:12.632Z,7.00
2018-12-20T22:56:40.870Z,7.00
2018-12-20T22:59:09.274Z,7.00
2018-12-20T23:01:37.653Z,7.10
2018-12-20T23:04:05.796Z,7.00
2018-12-20T23:06:34.474Z,7.00
2018-12-20T23:09:03.457Z,7.00
2018-12-20T23:11:31.533Z,7.00
2018-12-20T23:13:59.669Z,7.00
2018-12-20T23:16:27.821Z,7.00
2018-12-20T23:18:56.035Z,7.00
2018-12-20T23:21:24.233Z,6.90
2018-12-20T23:23:52.418Z,6.90
2018-12-20T23:26:20.557Z,6.90
2018-12-20T23:28:48.649Z,6.90
2018-12-20T23:31:16.875Z,6.90
2018-12-20T23:33:45.201Z,6.90
2018-12-20T23:36:13.333Z,6.80
2018-12-20T23:38:41.645Z,6.80
2018-12-20T23:41:09.785Z,6.80
2018-12-20T23:43:37.930Z,6.80
2018-12-20T23:46:06.278Z,6.80
2018-12-20T23:48:34.451Z,6.70
2018-12-20T23:51:02.695Z,6.70
2018-12-20T23:53:30.846Z,6.70
2018-12-20T23:55:59.117Z,6.70
2018-12-20T23:58:27.261Z,6.60
